Time;durP1;ratioP1;P1;durP2;ratioP2;P2;SDS_P1;SDS_P2;PMS_P1;PMS_P2;Temp;Humidity;BMP_temperature;BMP_pressure;BME280_temperature;BME280_humidity;BME280_pressure;Samples;Min_cycle;Max_cycle;Signal;HPM_P1;HPM_P2
2023/10/11 00:00:35;;;;;;;3.63;2.03;;;;;;;;;;5018273;28;20439;-66
2023/10/11 00:03:14;;;;;;;8.53;2.90;;;;;;;;;;5021866;28;20837;-66
2023/10/11 00:05:41;;;;;;;2.83;1.53;;;;;;;;;;5021223;28;20658;-66
2023/10/11 00:08:09;;;;;;;5.17;2.30;;;;;;;;;;5017635;28;20460;-66
2023/10/11 00:10:44;;;;;;;4.43;1.87;;;;;;;;;;5017448;28;20455;-66
2023/10/11 00:13:12;;;;;;;4.60;2.00;;;;;;;;;;5019419;28;20466;-66
2023/10/11 00:15:39;;;;;;;5.40;1.90;;;;;;;;;;5020741;28;20456;-66
2023/10/11 00:18:06;;;;;;;3.60;2.30;;;;;;;;;;5024378;28;20443;-66
2023/10/11 00:20:47;;;;;;;4.40;2.40;;;;;;;;;;5020400;28;20492;-65
2023/10/11 00:23:16;;;;;;;9.83;2.10;;;;;;;;;;5034827;28;20517;-65
2023/10/11 00:25:45;;;;;;;6.53;2.40;;;;;;;;;;5025660;28;21085;-66
2023/10/11 00:28:14;;;;;;;3.50;1.70;;;;;;;;;;5017048;28;20464;-65
2023/10/11 00:30:46;;;;;;;5.93;2.57;;;;;;;;;;5016457;28;20452;-66
2023/10/11 00:33:13;;;;;;;4.17;2.27;;;;;;;;;;5024139;28;20440;-66
2023/10/11 00:35:46;;;;;;;7.83;2.23;;;;;;;;;;5014435;28;21243;-66
2023/10/11 00:38:18;;;;;;;4.77;2.27;;;;;;;;;;5013978;28;20459;-66
2023/10/11 00:40:47;;;;;;;5.73;2.73;;;;;;;;;;5026429;28;20446;-65
2023/10/11 00:43:19;;;;;;;4.57;2.33;;;;;;;;;;5021842;28;20487;-66
2023/10/11 00:45:48;;;;;;;6.13;2.60;;;;;;;;;;5020968;28;20471;-66
2023/10/11 00:48:19;;;;;;;5.27;2.20;;;;;;;;;;5032368;28;20516;-66
2023/10/11 00:50:49;;;;;;;7.23;2.73;;;;;;;;;;5015787;28;20499;-66
2023/10/11 00:53:17;;;;;;;5.80;2.07;;;;;;;;;;5016774;28;20531;-65
2023/10/11 00:55:45;;;;;;;4.73;2.13;;;;;;;;;;5019434;28;20570;-66
2023/10/11 00:58:17;;;;;;;5.50;2.10;;;;;;;;;;5020018;28;20474;-66
2023/10/11 01:00:45;;;;;;;4.33;1.93;;;;;;;;;;5017578;28;20887;-66
2023/10/11 01:03:13;;;;;;;9.90;5.43;;;;;;;;;;5020019;28;20448;-66
2023/10/11 01:05:45;;;;;;;4.00;2.30;;;;;;;;;;5017055;28;20480;-66
2023/10/11 01:08:12;;;;;;;2.90;1.93;;;;;;;;;;5015652;28;20840;-66
2023/10/11 01:10:45;;;;;;;6.10;2.70;;;;;;;;;;5011712;28;20464;-66
2023/10/11 01:13:13;;;;;;;6.03;2.00;;;;;;;;;;5017759;28;20557;-66
2023/10/11 01:15:42;;;;;;;4.70;2.30;;;;;;;;;;5016356;28;20471;-65
2023/10/11 01:18:10;;;;;;;6.73;2.23;;;;;;;;;;5018225;28;20470;-66
2023/10/11 01:20:39;;;;;;;3.67;2.20;;;;;;;;;;5012585;28;20471;-66
2023/10/11 01:23:06;;;;;;;4.93;2.67;;;;;;;;;;5009534;28;20455;-66
2023/10/11 01:25:33;;;;;;;4.33;2.13;;;;;;;;;;5012688;28;20835;-66
2023/10/11 01:28:01;;;;;;;8.30;2.53;;;;;;;;;;5019537;28;20839;-65
2023/10/11 01:30:28;;;;;;;4.00;2.13;;;;;;;;;;5013442;28;20467;-65
2023/10/11 01:32:55;;;;;;;10.33;2.10;;;;;;;;;;5011943;28;20467;-65
2023/10/11 01:35:23;;;;;;;4.90;2.40;;;;;;;;;;5012198;28;21017;-66
2023/10/11 01:37:55;;;;;;;3.80;2.03;;;;;;;;;;5012948;28;20436;-65
2023/10/11 01:40:24;;;;;;;3.93;1.90;;;;;;;;;;5013233;28;20482;-65
2023/10/11 01:42:50;;;;;;;3.23;2.37;;;;;;;;;;5012707;28;20462;-64
2023/10/11 01:45:18;;;;;;;4.27;2.23;;;;;;;;;;5014122;28;20981;-64
2023/10/11 01:47:47;;;;;;;5.50;2.30;;;;;;;;;;5023762;28;20447;-65
2023/10/11 01:50:15;;;;;;;2.60;1.60;;;;;;;;;;5016587;28;20463;-65
2023/10/11 01:52:43;;;;;;;5.60;2.83;;;;;;;;;;5012152;28;20444;-65
2023/10/11 01:55:13;;;;;;;4.63;2.43;;;;;;;;;;5013983;28;20483;-65
2023/10/11 01:57:45;;;;;;;5.00;1.83;;;;;;;;;;5020384;28;20911;-65
2023/10/11 02:00:14;;;;;;;3.20;1.57;;;;;;;;;;5021634;28;20497;-65
2023/10/11 02:02:47;;;;;;;7.47;2.20;;;;;;;;;;5020547;28;20452;-65
2023/10/11 02:05:14;;;;;;;5.37;3.00;;;;;;;;;;5006493;28;20997;-65
2023/10/11 02:07:41;;;;;;;3.57;2.00;;;;;;;;;;5022317;28;20460;-65
2023/10/11 02:10:11;;;;;;;7.00;2.60;;;;;;;;;;5017424;28;20448;-65
2023/10/11 02:12:40;;;;;;;3.90;1.80;;;;;;;;;;5020009;28;20456;-65
2023/10/11 02:15:09;;;;;;;4.50;2.03;;;;;;;;;;5013815;28;20563;-65
2023/10/11 02:17:38;;;;;;;6.07;2.53;;;;;;;;;;5012260;28;20502;-65
2023/10/11 02:20:11;;;;;;;4.63;1.77;;;;;;;;;;5004001;28;20452;-65
2023/10/11 02:22:43;;;;;;;5.57;2.20;;;;;;;;;;5012831;28;20455;-65
2023/10/11 02:25:15;;;;;;;4.97;2.30;;;;;;;;;;5011168;28;20487;-65
2023/10/11 02:27:43;;;;;;;6.33;2.93;;;;;;;;;;5002172;28;20823;-65
2023/10/11 02:30:13;;;;;;;5.60;2.40;;;;;;;;;;5060227;22;20923;-67
2023/10/11 02:32:41;;;;;;;5.00;2.40;;;;;;;;;;5014009;28;20460;-69
2023/10/11 02:35:12;;;;;;;3.40;1.60;;;;;;;;;;5009585;28;20464;-68
2023/10/11 02:37:40;;;;;;;6.13;2.20;;;;;;;;;;4990131;28;20457;-69
2023/10/11 02:40:09;;;;;;;2.90;2.20;;;;;;;;;;4998863;28;20473;-68
2023/10/11 02:42:36;;;;;;;7.60;2.60;;;;;;;;;;4997228;28;20464;-69
2023/10/11 02:45:07;;;;;;;5.70;2.70;;;;;;;;;;4992501;28;20534;-69
2023/10/11 02:47:35;;;;;;;5.33;1.93;;;;;;;;;;4989024;28;20544;-69
2023/10/11 02:50:06;;;;;;;6.67;2.40;;;;;;;;;;4994966;28;20545;-68
2023/10/11 02:52:37;;;;;;;4.67;2.13;;;;;;;;;;4989682;28;20569;-69
2023/10/11 02:55:16;;;;;;;9.77;3.30;;;;;;;;;;4995529;28;20509;-70
2023/10/11 02:57:43;;;;;;;7.10;2.83;;;;;;;;;;4991825;28;20867;-68
2023/10/11 03:00:22;;;;;;;4.33;2.00;;;;;;;;;;4992392;28;20539;-69
2023/10/11 03:02:54;;;;;;;3.70;2.00;;;;;;;;;;4987979;28;20842;-69
2023/10/11 03:05:26;;;;;;;3.43;2.23;;;;;;;;;;4985273;28;21836;-69
2023/10/11 03:07:53;;;;;;;9.80;3.50;;;;;;;;;;4992437;28;20460;-69
2023/10/11 03:10:21;;;;;;;6.60;2.30;;;;;;;;;;4998986;28;20448;-69
2023/10/11 03:12:50;;;;;;;3.70;2.17;;;;;;;;;;4993292;28;20468;-69
2023/10/11 03:15:20;;;;;;;4.53;2.10;;;;;;;;;;4995730;28;21054;-68
2023/10/11 03:17:52;;;;;;;5.33;2.03;;;;;;;;;;4993191;28;20452;-68
2023/10/11 03:20:28;;;;;;;3.53;1.70;;;;;;;;;;4993311;28;20457;-69
2023/10/11 03:22:59;;;;;;;3.53;2.10;;;;;;;;;;4995559;28;20458;-70
2023/10/11 03:25:29;;;;;;;7.40;2.33;;;;;;;;;;4995678;28;20854;-69
2023/10/11 03:27:56;;;;;;;3.80;1.97;;;;;;;;;;4993950;28;20457;-69
2023/10/11 03:30:24;;;;;;;4.67;2.27;;;;;;;;;;4979418;28;20475;-69
2023/10/11 03:32:55;;;;;;;11.37;2.43;;;;;;;;;;4993865;28;20445;-69
2023/10/11 03:35:25;;;;;;;8.97;2.63;;;;;;;;;;5002940;28;20493;-70
2023/10/11 03:37:58;;;;;;;3.63;2.10;;;;;;;;;;4988731;28;20479;-69
2023/10/11 03:40:34;;;;;;;3.93;2.10;;;;;;;;;;5009005;28;20456;-69
2023/10/11 03:43:04;;;;;;;4.90;2.07;;;;;;;;;;5004202;28;20848;-69
2023/10/11 03:45:35;;;;;;;6.23;2.70;;;;;;;;;;5005657;28;20480;-69
2023/10/11 03:48:09;;;;;;;3.50;2.00;;;;;;;;;;5008157;28;20456;-69
2023/10/11 03:50:37;;;;;;;3.33;2.10;;;;;;;;;;5003948;28;20554;-70
2023/10/11 03:53:10;;;;;;;4.13;1.70;;;;;;;;;;5014306;28;20515;-69
2023/10/11 03:55:45;;;;;;;7.87;2.43;;;;;;;;;;5002197;28;20503;-68
2023/10/11 03:58:15;;;;;;;4.90;1.77;;;;;;;;;;5002789;28;20459;-68
2023/10/11 04:00:47;;;;;;;4.83;3.03;;;;;;;;;;4995179;28;20527;-68
2023/10/11 04:03:17;;;;;;;6.70;2.27;;;;;;;;;;5004407;28;20433;-69
2023/10/11 04:05:47;;;;;;;3.47;2.13;;;;;;;;;;5006574;28;20539;-69
2023/10/11 04:08:22;;;;;;;3.93;2.40;;;;;;;;;;5002261;28;20943;-70
2023/10/11 04:10:49;;;;;;;2.83;1.70;;;;;;;;;;5006176;28;20461;-70
2023/10/11 04:13:24;;;;;;;6.73;3.03;;;;;;;;;;4995254;28;20872;-70
2023/10/11 04:15:55;;;;;;;2.80;1.73;;;;;;;;;;4993887;28;20860;-69
2023/10/11 04:18:33;;;;;;;5.57;2.07;;;;;;;;;;5014550;28;20440;-69
2023/10/11 04:21:16;;;;;;;3.80;2.17;;;;;;;;;;5006993;28;20474;-68
2023/10/11 04:23:45;;;;;;;5.80;2.43;;;;;;;;;;5002220;28;20465;-70
2023/10/11 04:26:26;;;;;;;7.63;2.43;;;;;;;;;;4996265;28;20498;-69
2023/10/11 04:28:53;;;;;;;4.73;1.60;;;;;;;;;;5011565;28;20447;-68
2023/10/11 04:31:31;;;;;;;5.97;2.13;;;;;;;;;;4997532;28;20480;-68
2023/10/11 04:33:59;;;;;;;2.20;1.60;;;;;;;;;;5002362;28;20492;-69
2023/10/11 04:36:28;;;;;;;3.97;2.43;;;;;;;;;;5004114;28;20556;-70
2023/10/11 04:39:03;;;;;;;4.20;2.00;;;;;;;;;;4997740;28;20875;-68
2023/10/11 04:41:38;;;;;;;6.13;2.47;;;;;;;;;;5002716;28;20461;-68
2023/10/11 04:44:13;;;;;;;4.97;1.50;;;;;;;;;;4992980;28;20568;-68
2023/10/11 04:46:44;;;;;;;5.57;2.10;;;;;;;;;;4993230;28;20473;-70
2023/10/11 04:49:18;;;;;;;5.43;3.40;;;;;;;;;;4995733;28;20449;-73
2023/10/11 04:51:46;;;;;;;5.37;2.90;;;;;;;;;;4997385;28;20456;-68
2023/10/11 04:54:16;;;;;;;6.60;2.50;;;;;;;;;;5003571;28;21104;-68
2023/10/11 04:56:56;;;;;;;8.77;2.53;;;;;;;;;;5001641;28;20453;-68
2023/10/11 04:59:36;;;;;;;3.97;2.23;;;;;;;;;;5010279;28;20475;-69
2023/10/11 05:02:09;;;;;;;3.33;1.90;;;;;;;;;;4983482;28;20475;-68
2023/10/11 05:04:42;;;;;;;4.57;2.17;;;;;;;;;;4999477;28;20491;-67
2023/10/11 05:07:09;;;;;;;5.53;2.83;;;;;;;;;;4996670;28;20473;-68
2023/10/11 05:09:41;;;;;;;2.93;2.60;;;;;;;;;;5011470;28;20440;-67
2023/10/11 05:12:09;;;;;;;4.43;2.30;;;;;;;;;;5001926;28;20467;-67
2023/10/11 05:14:39;;;;;;;3.90;1.90;;;;;;;;;;5002394;28;20480;-68
2023/10/11 05:17:33;;;;;;;4.13;2.20;;;;;;;;;;5000669;28;20476;-68
2023/10/11 05:20:23;;;;;;;3.83;2.43;;;;;;;;;;5007971;28;20436;-67
2023/10/11 05:22:49;;;;;;;5.60;2.03;;;;;;;;;;4990110;28;20444;-67
2023/10/11 05:25:38;;;;;;;5.03;2.43;;;;;;;;;;4999395;28;20488;-67
2023/10/11 05:28:08;;;;;;;4.80;2.60;;;;;;;;;;5004011;28;20472;-67
2023/10/11 05:30:35;;;;;;;3.03;1.83;;;;;;;;;;5008243;28;20461;-67
2023/10/11 05:33:31;;;;;;;4.90;2.20;;;;;;;;;;4999458;28;20449;-67
2023/10/11 05:36:16;;;;;;;4.07;2.07;;;;;;;;;;5007224;28;20491;-68
2023/10/11 05:52:29;;;;;;;2.60;1.90;;;;;;;;;;4996304;28;20466;-68
2023/10/11 05:54:57;;;;;;;7.77;2.53;;;;;;;;;;4997290;28;20476;-67
2023/10/11 05:57:27;;;;;;;4.87;1.93;;;;;;;;;;5008115;28;20444;-68
2023/10/11 05:59:54;;;;;;;5.50;2.63;;;;;;;;;;5006716;28;20992;-67
2023/10/11 06:02:22;;;;;;;8.23;3.80;;;;;;;;;;5000003;28;20468;-68
2023/10/11 06:04:50;;;;;;;6.93;2.40;;;;;;;;;;5001281;28;20480;-68
2023/10/11 06:07:21;;;;;;;4.27;1.90;;;;;;;;;;5008706;28;20491;-67
2023/10/11 06:09:52;;;;;;;5.50;2.83;;;;;;;;;;5001229;28;20475;-66
2023/10/11 06:12:27;;;;;;;3.40;2.50;;;;;;;;;;4995535;28;20453;-67
2023/10/11 06:14:54;;;;;;;5.80;2.23;;;;;;;;;;4998591;28;20463;-67
2023/10/11 06:17:22;;;;;;;5.23;2.00;;;;;;;;;;4991857;28;20918;-67
2023/10/11 06:19:54;;;;;;;4.80;2.37;;;;;;;;;;4999408;28;20516;-67
2023/10/11 06:22:23;;;;;;;3.83;2.07;;;;;;;;;;4993704;28;20464;-66
2023/10/11 06:24:50;;;;;;;3.10;2.10;;;;;;;;;;4992196;28;20959;-67
2023/10/11 06:30:06;;;;;;;5.10;2.73;;;;;;;;;;4990031;28;20443;-66
2023/10/11 06:32:35;;;;;;;3.50;2.03;;;;;;;;;;4992226;28;20456;-68
2023/10/11 06:35:05;;;;;;;5.70;2.20;;;;;;;;;;4998417;28;20481;-67
2023/10/11 06:37:35;;;;;;;3.60;2.10;;;;;;;;;;4999868;28;20942;-67
2023/10/11 06:40:14;;;;;;;3.97;2.10;;;;;;;;;;4987069;28;20552;-68
2023/10/11 06:42:42;;;;;;;8.00;2.47;;;;;;;;;;4994674;28;20456;-68
2023/10/11 06:45:16;;;;;;;3.43;1.90;;;;;;;;;;4992478;28;20800;-69
2023/10/11 06:47:43;;;;;;;6.90;3.40;;;;;;;;;;4989643;28;20859;-68
2023/10/11 06:50:12;;;;;;;8.90;3.13;;;;;;;;;;4985298;28;20549;-67
2023/10/11 06:52:43;;;;;;;6.50;2.23;;;;;;;;;;5000473;28;20456;-68
2023/10/11 06:55:16;;;;;;;3.47;1.77;;;;;;;;;;5000384;28;21081;-68
2023/10/11 06:57:51;;;;;;;6.53;2.63;;;;;;;;;;4996721;28;20460;-67
2023/10/11 07:00:23;;;;;;;5.37;3.10;;;;;;;;;;4993600;28;20786;-67
2023/10/11 07:02:52;;;;;;;3.40;2.20;;;;;;;;;;4991226;28;20461;-68
2023/10/11 07:05:25;;;;;;;5.33;1.50;;;;;;;;;;4997649;28;20495;-68
2023/10/11 07:07:53;;;;;;;3.67;2.87;;;;;;;;;;5004317;28;20896;-68
2023/10/11 07:10:28;;;;;;;8.80;2.27;;;;;;;;;;4992729;28;20461;-67
2023/10/11 07:13:04;;;;;;;4.20;2.17;;;;;;;;;;4998432;28;20567;-68
2023/10/11 07:15:37;;;;;;;3.67;1.67;;;;;;;;;;5000739;28;20682;-68
2023/10/11 07:18:08;;;;;;;8.53;1.97;;;;;;;;;;5010512;28;20440;-68
2023/10/11 07:20:49;;;;;;;4.70;1.77;;;;;;;;;;4978900;28;20456;-68
2023/10/11 07:23:21;;;;;;;4.63;2.03;;;;;;;;;;4997066;28;20499;-68
2023/10/11 07:25:49;;;;;;;5.07;2.60;;;;;;;;;;4995408;28;20437;-69
2023/10/11 07:28:26;;;;;;;2.60;1.70;;;;;;;;;;4995368;28;20485;-68
2023/10/11 07:30:53;;;;;;;5.97;2.77;;;;;;;;;;4999701;28;20953;-68
2023/10/11 07:33:20;;;;;;;5.27;2.43;;;;;;;;;;4985507;28;20531;-68
2023/10/11 07:35:51;;;;;;;3.90;1.93;;;;;;;;;;4997980;28;20491;-69
2023/10/11 07:38:18;;;;;;;3.17;2.07;;;;;;;;;;5004582;28;20821;-68
2023/10/11 07:40:52;;;;;;;2.60;1.70;;;;;;;;;;5003485;28;20522;-68
2023/10/11 07:43:25;;;;;;;4.23;2.13;;;;;;;;;;4999421;28;20884;-68
2023/10/11 07:45:52;;;;;;;9.63;2.80;;;;;;;;;;5005591;28;20957;-68
2023/10/11 07:48:19;;;;;;;5.47;2.63;;;;;;;;;;4995103;28;20484;-68
2023/10/11 07:50:49;;;;;;;4.40;1.93;;;;;;;;;;5009383;28;20463;-68
2023/10/11 07:53:16;;;;;;;5.87;2.40;;;;;;;;;;4999010;28;20453;-68
2023/10/11 07:55:45;;;;;;;5.37;2.60;;;;;;;;;;5006202;28;20472;-69
2023/10/11 07:58:12;;;;;;;4.97;2.37;;;;;;;;;;5003097;28;20645;-70
2023/10/11 08:00:41;;;;;;;5.43;2.67;;;;;;;;;;5007924;28;20478;-68
2023/10/11 08:03:11;;;;;;;3.97;2.17;;;;;;;;;;4995847;28;20460;-68
2023/10/11 08:05:45;;;;;;;4.63;2.90;;;;;;;;;;5016455;28;20518;-67
2023/10/11 08:08:14;;;;;;;4.03;2.10;;;;;;;;;;5003032;28;20534;-67
2023/10/11 08:10:44;;;;;;;3.63;2.37;;;;;;;;;;5013145;28;20450;-68
2023/10/11 08:13:23;;;;;;;2.97;1.90;;;;;;;;;;4998783;28;20827;-68
2023/10/11 08:15:55;;;;;;;3.73;2.10;;;;;;;;;;5015144;28;20502;-67
2023/10/11 08:18:22;;;;;;;3.50;1.77;;;;;;;;;;4996561;28;20445;-67
2023/10/11 08:20:50;;;;;;;6.33;2.00;;;;;;;;;;5001741;28;20776;-68
2023/10/11 08:23:28;;;;;;;6.00;2.17;;;;;;;;;;5010536;28;20446;-68
2023/10/11 08:25:56;;;;;;;7.63;3.00;;;;;;;;;;5005861;28;20519;-68
2023/10/11 08:28:28;;;;;;;4.33;2.10;;;;;;;;;;5010025;28;20826;-69
2023/10/11 08:30:57;;;;;;;5.47;2.40;;;;;;;;;;5220574;22;20567;-67
2023/10/11 08:33:25;;;;;;;5.80;2.50;;;;;;;;;;5061947;28;20889;-67
2023/10/11 08:35:53;;;;;;;3.90;1.80;;;;;;;;;;5061767;28;20440;-67
2023/10/11 08:38:24;;;;;;;4.40;2.00;;;;;;;;;;5052513;28;20434;-67
2023/10/11 08:40:58;;;;;;;4.27;2.17;;;;;;;;;;5055625;28;21011;-67
2023/10/11 08:43:25;;;;;;;4.27;2.47;;;;;;;;;;5067313;28;20441;-67
2023/10/11 08:46:00;;;;;;;5.97;2.90;;;;;;;;;;5053480;28;20534;-67
2023/10/11 08:48:28;;;;;;;6.30;2.67;;;;;;;;;;5066394;28;20564;-67
2023/10/11 08:50:57;;;;;;;9.30;3.20;;;;;;;;;;5050244;28;20944;-67
2023/10/11 08:53:25;;;;;;;3.43;2.40;;;;;;;;;;5062588;28;20919;-67
2023/10/11 08:55:56;;;;;;;3.07;1.63;;;;;;;;;;5060498;28;20453;-67
2023/10/11 08:58:28;;;;;;;6.83;2.57;;;;;;;;;;5057857;28;20445;-67
2023/10/11 09:00:55;;;;;;;4.80;2.20;;;;;;;;;;5069124;28;20810;-67
2023/10/11 09:03:23;;;;;;;3.10;2.30;;;;;;;;;;5059573;28;20467;-67
2023/10/11 09:05:58;;;;;;;5.87;2.10;;;;;;;;;;5057295;28;20434;-67
2023/10/11 09:08:31;;;;;;;6.50;2.13;;;;;;;;;;5056293;28;20555;-67
2023/10/11 09:11:12;;;;;;;3.93;2.80;;;;;;;;;;5047543;28;20473;-67
2023/10/11 09:13:39;;;;;;;4.57;2.00;;;;;;;;;;5061989;28;20471;-67
2023/10/11 09:16:12;;;;;;;7.47;2.00;;;;;;;;;;5055784;28;20948;-67
2023/10/11 09:18:39;;;;;;;3.90;1.87;;;;;;;;;;5062834;28;20431;-67
2023/10/11 09:21:15;;;;;;;4.07;1.83;;;;;;;;;;5057768;28;20935;-67
2023/10/11 09:23:46;;;;;;;4.53;1.70;;;;;;;;;;5058862;28;20476;-66
2023/10/11 09:26:20;;;;;;;3.60;2.10;;;;;;;;;;5051835;28;20456;-66
2023/10/11 09:28:56;;;;;;;6.33;2.70;;;;;;;;;;5052212;28;20470;-68
2023/10/11 09:31:24;;;;;;;8.13;2.00;;;;;;;;;;5052280;28;20501;-67
2023/10/11 09:33:53;;;;;;;3.80;1.90;;;;;;;;;;5065045;28;20485;-67
2023/10/11 09:36:24;;;;;;;8.83;2.30;;;;;;;;;;5050421;28;20470;-68
2023/10/11 09:38:55;;;;;;;3.23;1.80;;;;;;;;;;5063210;28;20905;-69
2023/10/11 09:41:24;;;;;;;2.77;1.70;;;;;;;;;;5051843;28;20438;-66
2023/10/11 09:43:55;;;;;;;3.40;2.00;;;;;;;;;;5065746;28;20458;-67
2023/10/11 09:46:29;;;;;;;4.73;2.03;;;;;;;;;;5063857;28;20522;-67
2023/10/11 09:48:56;;;;;;;5.63;2.37;;;;;;;;;;5058780;28;20864;-66
2023/10/11 09:51:24;;;;;;;7.23;2.63;;;;;;;;;;5065916;28;20484;-69
2023/10/11 09:53:53;;;;;;;6.23;2.30;;;;;;;;;;5052105;28;20470;-66
2023/10/11 09:56:38;;;;;;;7.83;2.30;;;;;;;;;;5052573;28;20438;-66
2023/10/11 09:59:22;;;;;;;2.77;1.63;;;;;;;;;;5061242;28;20462;-66
2023/10/11 10:01:55;;;;;;;4.03;2.17;;;;;;;;;;5065603;28;20865;-67
2023/10/11 10:04:50;;;;;;;5.20;1.87;;;;;;;;;;5055205;28;20588;-67
2023/10/11 10:07:21;;;;;;;7.73;2.70;;;;;;;;;;5044643;28;20560;-66
2023/10/11 10:09:53;;;;;;;5.67;2.20;;;;;;;;;;5050351;28;20485;-66
2023/10/11 10:12:25;;;;;;;3.83;1.50;;;;;;;;;;5051766;28;20468;-67
2023/10/11 10:15:02;;;;;;;4.30;1.70;;;;;;;;;;5053646;28;21369;-67
2023/10/11 10:17:29;;;;;;;3.33;1.93;;;;;;;;;;5046586;28;20465;-67
2023/10/11 10:20:00;;;;;;;7.83;2.17;;;;;;;;;;5050884;28;20528;-67
2023/10/11 10:22:31;;;;;;;4.87;2.20;;;;;;;;;;5048539;28;20454;-67
2023/10/11 10:25:18;;;;;;;3.07;1.60;;;;;;;;;;5048112;28;20483;-67
2023/10/11 10:27:46;;;;;;;4.00;1.80;;;;;;;;;;5051331;28;20584;-66
2023/10/11 10:30:21;;;;;;;5.57;1.70;;;;;;;;;;5051793;28;20438;-67
2023/10/11 10:33:07;;;;;;;4.50;1.67;;;;;;;;;;5036582;28;20449;-67
2023/10/11 10:35:37;;;;;;;4.60;1.70;;;;;;;;;;5051320;28;20492;-66
2023/10/11 10:38:09;;;;;;;3.40;2.17;;;;;;;;;;5042601;28;20545;-66
2023/10/11 10:40:45;;;;;;;3.17;1.50;;;;;;;;;;5045141;28;20450;-66
2023/10/11 10:43:19;;;;;;;3.63;1.57;;;;;;;;;;5034988;28;20450;-66
2023/10/11 10:45:47;;;;;;;4.47;2.37;;;;;;;;;;5051065;28;20825;-67
2023/10/11 10:48:14;;;;;;;5.10;2.07;;;;;;;;;;5063155;28;21008;-66
2023/10/11 10:50:48;;;;;;;4.03;2.00;;;;;;;;;;5044713;28;20558;-66
2023/10/11 10:53:14;;;;;;;6.27;3.20;;;;;;;;;;5063508;28;20538;-66
2023/10/11 10:55:43;;;;;;;3.67;2.20;;;;;;;;;;5054233;28;20462;-66
2023/10/11 10:58:15;;;;;;;3.53;2.00;;;;;;;;;;5059216;28;20451;-67
2023/10/11 11:00:43;;;;;;;4.17;1.90;;;;;;;;;;5056758;28;20496;-67
2023/10/11 11:03:20;;;;;;;4.87;1.90;;;;;;;;;;5059423;28;20453;-68
2023/10/11 11:05:55;;;;;;;3.03;1.77;;;;;;;;;;5058644;28;20434;-66
2023/10/11 11:08:27;;;;;;;6.40;2.07;;;;;;;;;;5047077;28;20959;-66
2023/10/11 11:10:54;;;;;;;3.43;1.77;;;;;;;;;;5048818;28;20897;-66
2023/10/11 11:13:22;;;;;;;4.03;1.80;;;;;;;;;;5063555;28;20442;-66
2023/10/11 11:15:55;;;;;;;4.10;1.97;;;;;;;;;;5055999;28;20870;-66
2023/10/11 11:18:31;;;;;;;4.97;2.43;;;;;;;;;;5058566;28;20518;-66
2023/10/11 11:20:59;;;;;;;4.83;2.10;;;;;;;;;;5053838;28;20823;-66
2023/10/11 11:23:27;;;;;;;3.50;2.20;;;;;;;;;;5060537;28;20464;-66
2023/10/11 11:25:57;;;;;;;4.53;1.57;;;;;;;;;;5044458;28;20935;-66
2023/10/11 11:28:27;;;;;;;5.37;2.13;;;;;;;;;;5061753;28;20480;-66
2023/10/11 11:31:10;;;;;;;4.50;2.60;;;;;;;;;;5056747;28;20878;-66
2023/10/11 11:33:47;;;;;;;3.27;1.97;;;;;;;;;;5047296;28;20458;-66
2023/10/11 11:36:22;;;;;;;3.17;1.80;;;;;;;;;;5051928;28;20500;-67
2023/10/11 11:38:49;;;;;;;6.30;2.57;;;;;;;;;;5044668;28;20453;-66
2023/10/11 11:41:17;;;;;;;3.37;2.23;;;;;;;;;;5034371;28;20458;-66
2023/10/11 11:43:44;;;;;;;4.13;1.90;;;;;;;;;;5055234;28;20465;-66
2023/10/11 11:46:10;;;;;;;3.40;1.80;;;;;;;;;;5051418;28;20437;-66
2023/10/11 11:48:41;;;;;;;3.93;1.57;;;;;;;;;;5052970;28;20598;-66
2023/10/11 11:51:13;;;;;;;5.73;2.60;;;;;;;;;;5056126;28;20450;-67
2023/10/11 11:53:43;;;;;;;8.30;2.40;;;;;;;;;;5044211;28;20543;-67
2023/10/11 11:56:11;;;;;;;4.03;2.10;;;;;;;;;;5055381;28;20457;-67
2023/10/11 11:58:44;;;;;;;4.63;1.70;;;;;;;;;;5052888;28;20543;-67
2023/10/11 12:01:15;;;;;;;4.80;1.80;;;;;;;;;;5054301;28;20462;-66
2023/10/11 12:03:42;;;;;;;7.10;2.80;;;;;;;;;;5049330;28;20857;-66
2023/10/11 12:06:22;;;;;;;3.20;1.87;;;;;;;;;;5054727;28;20438;-66
2023/10/11 12:08:48;;;;;;;3.87;2.10;;;;;;;;;;5063409;28;20516;-67
2023/10/11 12:11:15;;;;;;;5.70;2.10;;;;;;;;;;5059898;28;20449;-67
2023/10/11 12:13:44;;;;;;;5.20;2.10;;;;;;;;;;5065081;28;20481;-67
2023/10/11 12:16:11;;;;;;;7.53;2.03;;;;;;;;;;5054116;28;20472;-66
2023/10/11 12:18:38;;;;;;;3.80;1.90;;;;;;;;;;5064287;28;20434;-68
2023/10/11 12:21:11;;;;;;;3.73;2.00;;;;;;;;;;5058059;28;20465;-67
2023/10/11 12:23:45;;;;;;;5.23;2.13;;;;;;;;;;5065311;28;20535;-66
2023/10/11 12:26:12;;;;;;;3.00;1.97;;;;;;;;;;5057777;28;20441;-66
2023/10/11 12:28:41;;;;;;;5.33;2.10;;;;;;;;;;5058424;28;20477;-66
2023/10/11 12:31:10;;;;;;;4.43;2.10;;;;;;;;;;5057523;28;20470;-66
2023/10/11 12:33:37;;;;;;;6.70;3.30;;;;;;;;;;5065392;28;20868;-67
2023/10/11 12:36:06;;;;;;;3.70;1.90;;;;;;;;;;5046872;28;20432;-66
2023/10/11 12:38:36;;;;;;;9.30;4.00;;;;;;;;;;5049053;28;20528;-66
2023/10/11 12:41:03;;;;;;;4.97;2.70;;;;;;;;;;5053917;28;20549;-66
2023/10/11 12:43:32;;;;;;;10.00;5.00;;;;;;;;;;5070332;28;20479;-66
2023/10/11 12:46:00;;;;;;;3.50;1.73;;;;;;;;;;5049751;28;20460;-66
2023/10/11 12:48:28;;;;;;;5.07;2.00;;;;;;;;;;5062336;28;20481;-66
2023/10/11 12:50:58;;;;;;;6.23;3.87;;;;;;;;;;5070021;28;20490;-67
2023/10/11 12:53:28;;;;;;;3.70;1.70;;;;;;;;;;5058586;28;20462;-66
2023/10/11 12:55:55;;;;;;;2.60;1.50;;;;;;;;;;5066484;28;20444;-66
2023/10/11 12:58:27;;;;;;;3.20;1.50;;;;;;;;;;5056456;28;20462;-66
2023/10/11 13:00:58;;;;;;;5.90;3.13;;;;;;;;;;5052920;28;20434;-66
2023/10/11 13:03:28;;;;;;;3.10;1.50;;;;;;;;;;5066479;28;20469;-67
2023/10/11 13:06:03;;;;;;;6.23;2.23;;;;;;;;;;5064918;28;20495;-66
2023/10/11 13:08:33;;;;;;;4.00;1.60;;;;;;;;;;5053112;28;20612;-66
2023/10/11 13:11:00;;;;;;;3.17;2.00;;;;;;;;;;5054180;28;20558;-66
2023/10/11 13:13:28;;;;;;;3.17;1.73;;;;;;;;;;5066835;28;20472;-66
2023/10/11 13:15:58;;;;;;;3.53;1.80;;;;;;;;;;5059145;28;20465;-66
2023/10/11 13:18:27;;;;;;;8.23;3.33;;;;;;;;;;5051695;28;20503;-66
2023/10/11 13:20:55;;;;;;;2.57;1.40;;;;;;;;;;5052582;28;20552;-66
2023/10/11 13:23:28;;;;;;;6.47;2.50;;;;;;;;;;5052260;28;20461;-66
2023/10/11 13:25:56;;;;;;;3.27;1.80;;;;;;;;;;5056882;28;20437;-67
2023/10/11 13:28:26;;;;;;;2.57;1.83;;;;;;;;;;5058407;28;20454;-66
2023/10/11 13:30:53;;;;;;;2.10;1.23;;;;;;;;;;5054322;28;20464;-66
2023/10/11 13:33:20;;;;;;;16.63;3.83;;;;;;;;;;5062282;28;20452;-66
2023/10/11 13:35:49;;;;;;;5.80;3.20;;;;;;;;;;5066234;28;20520;-66
2023/10/11 13:38:18;;;;;;;11.10;7.13;;;;;;;;;;5051841;28;20536;-66
2023/10/11 13:40:46;;;;;;;6.43;2.20;;;;;;;;;;5065243;28;20944;-66
2023/10/11 13:43:13;;;;;;;3.83;2.50;;;;;;;;;;5060700;28;20494;-67
2023/10/11 13:45:41;;;;;;;8.67;1.87;;;;;;;;;;5056787;28;20545;-66
2023/10/11 13:48:13;;;;;;;5.43;2.07;;;;;;;;;;5058995;28;20453;-66
2023/10/11 13:50:41;;;;;;;3.90;2.00;;;;;;;;;;5059190;28;20487;-67
2023/10/11 13:53:13;;;;;;;3.90;2.00;;;;;;;;;;5057446;28;20540;-67
2023/10/11 13:55:43;;;;;;;2.90;1.40;;;;;;;;;;5064487;28;20488;-66
2023/10/11 13:58:12;;;;;;;7.23;2.37;;;;;;;;;;5057420;28;20831;-67
2023/10/11 14:03:40;;;;;;;2.13;1.73;;;;;;;;;;5061583;28;20461;-66
2023/10/11 14:06:22;;;;;;;3.47;1.90;;;;;;;;;;5058315;28;20434;-66
2023/10/11 14:08:49;;;;;;;8.47;2.67;;;;;;;;;;5052852;28;20779;-67
2023/10/11 14:11:18;;;;;;;2.23;1.33;;;;;;;;;;5054436;28;20461;-67
2023/10/11 14:13:50;;;;;;;3.63;1.90;;;;;;;;;;5061739;28;20473;-67
2023/10/11 14:16:21;;;;;;;7.23;2.07;;;;;;;;;;5058350;28;20543;-66
2023/10/11 14:18:49;;;;;;;3.13;1.67;;;;;;;;;;5061580;28;20509;-68
2023/10/11 14:21:19;;;;;;;3.40;2.00;;;;;;;;;;5049722;28;20493;-68
2023/10/11 14:23:48;;;;;;;3.30;2.10;;;;;;;;;;5057381;28;20539;-68
2023/10/11 14:26:15;;;;;;;7.20;2.00;;;;;;;;;;5050771;28;20975;-68
2023/10/11 14:28:43;;;;;;;2.67;1.60;;;;;;;;;;5049019;28;20947;-68
2023/10/11 14:31:18;;;;;;;4.17;2.13;;;;;;;;;;5206135;22;21089;-69
2023/10/11 14:33:47;;;;;;;3.00;1.60;;;;;;;;;;4995881;28;20472;-69
2023/10/11 14:36:14;;;;;;;2.93;2.10;;;;;;;;;;4992824;28;20803;-69
2023/10/11 14:38:46;;;;;;;3.13;1.70;;;;;;;;;;4994675;28;20444;-68
2023/10/11 14:41:14;;;;;;;3.53;1.63;;;;;;;;;;4993490;28;20493;-67
2023/10/11 14:43:41;;;;;;;3.93;1.50;;;;;;;;;;5007148;28;20526;-68
2023/10/11 14:46:08;;;;;;;4.77;1.93;;;;;;;;;;5003789;28;20454;-68
2023/10/11 14:48:38;;;;;;;3.43;1.80;;;;;;;;;;4999079;28;20455;-70
2023/10/11 14:51:06;;;;;;;3.10;2.03;;;;;;;;;;4988147;28;20491;-68
2023/10/11 14:53:34;;;;;;;3.27;1.73;;;;;;;;;;4997328;28;20489;-68
2023/10/11 14:56:03;;;;;;;4.50;2.03;;;;;;;;;;5000220;28;20483;-68
2023/10/11 14:58:31;;;;;;;5.63;2.40;;;;;;;;;;5005814;28;20460;-69
2023/10/11 15:00:58;;;;;;;4.03;2.03;;;;;;;;;;4993014;28;20943;-68
2023/10/11 15:03:26;;;;;;;3.60;1.60;;;;;;;;;;5001902;28;20535;-68
2023/10/11 15:05:54;;;;;;;2.77;1.70;;;;;;;;;;5010739;28;20495;-68
2023/10/11 15:08:21;;;;;;;5.37;2.73;;;;;;;;;;4996672;28;20907;-68
2023/10/11 15:10:48;;;;;;;5.73;2.23;;;;;;;;;;4979627;28;20518;-67
2023/10/11 15:13:15;;;;;;;2.87;2.40;;;;;;;;;;5007928;28;20443;-67
2023/10/11 15:15:43;;;;;;;3.40;1.73;;;;;;;;;;5005568;28;20467;-68
2023/10/11 15:18:12;;;;;;;3.07;1.83;;;;;;;;;;5011670;28;20460;-68
2023/10/11 15:20:39;;;;;;;2.27;1.50;;;;;;;;;;4997816;28;20275;-68
2023/10/11 15:23:07;;;;;;;2.90;2.03;;;;;;;;;;4996003;28;20634;-68